createdAt,value
2018-12-22T00:02:10.861Z,97287.81
2018-12-22T00:04:37.403Z,97291.45
2018-12-22T00:07:03.908Z,97288.80
2018-12-22T00:09:30.403Z,97285.13
2018-12-22T00:11:56.842Z,97281.03
2018-12-22T00:14:23.340Z,97281.39
2018-12-22T00:16:49.900Z,97284.16
2018-12-22T00:19:16.514Z,97280.68
2018-12-22T00:21:42.995Z,97268.18
2018-12-22T00:24:09.573Z,97280.00
2018-12-22T00:26:36.138Z,97282.34
2018-12-22T00:29:02.612Z,97282.63
2018-12-22T00:31:29.090Z,97287.66
2018-12-22T00:33:55.649Z,97291.02
2018-12-22T00:36:22.124Z,97286.08
2018-12-22T00:38:52.269Z,97288.83
2018-12-22T00:41:18.789Z,97280.20
2018-12-22T00:43:45.292Z,97290.33
2018-12-22T00:46:12.752Z,97292.47
2018-12-22T00:48:39.311Z,97304.38
2018-12-22T00:51:05.793Z,97311.02
2018-12-22T00:53:32.355Z,97305.83
2018-12-22T00:55:58.916Z,97294.41
2018-12-22T00:58:30.688Z,97296.72
2018-12-22T01:00:57.711Z,97289.55
2018-12-22T01:03:24.378Z,97292.28
2018-12-22T01:05:51.059Z,97296.13
2018-12-22T01:08:17.618Z,97289.09
2018-12-22T01:10:44.902Z,97299.29
2018-12-22T01:13:11.791Z,97284.58
2018-12-22T01:15:38.295Z,97290.97
2018-12-22T01:18:04.737Z,97285.80
2018-12-22T01:20:31.355Z,97281.02
2018-12-22T01:22:58.116Z,97290.68
2018-12-22T01:25:24.584Z,97297.69
2018-12-22T01:27:51.033Z,97287.37
2018-12-22T01:30:17.623Z,97287.80
2018-12-22T01:32:44.715Z,97284.25
2018-12-22T01:35:11.166Z,97280.30
2018-12-22T01:37:37.717Z,97274.50
2018-12-22T01:40:04.226Z,97281.45
2018-12-22T01:42:30.765Z,97280.47
2018-12-22T01:44:57.262Z,97270.80
2018-12-22T01:47:23.773Z,97253.55
2018-12-22T01:49:50.274Z,97265.31
2018-12-22T01:52:16.741Z,97263.77
2018-12-22T01:54:43.198Z,97263.28
2018-12-22T01:57:09.702Z,97263.17
2018-12-22T01:59:36.232Z,97267.31
2018-12-22T02:02:02.727Z,97262.13
2018-12-22T02:04:29.179Z,97274.00
2018-12-22T02:06:55.643Z,97276.44
2018-12-22T02:09:22.173Z,97283.23
2018-12-22T02:11:48.614Z,97279.96
2018-12-22T02:14:15.104Z,97282.77
2018-12-22T02:16:41.539Z,97283.72
2018-12-22T02:19:08.022Z,97264.08
2018-12-22T02:21:34.482Z,97255.02
2018-12-22T02:24:01.570Z,97260.84
2018-12-22T02:26:28.079Z,97267.36
2018-12-22T02:28:56.853Z,97257.13
2018-12-22T02:31:23.023Z,97266.19
2018-12-22T02:33:49.453Z,97257.16
2018-12-22T02:36:15.971Z,97255.85
2018-12-22T02:38:42.450Z,97261.00
2018-12-22T02:41:09.806Z,97260.77
2018-12-22T02:43:36.409Z,97267.48
2018-12-22T02:46:02.862Z,97273.91
2018-12-22T02:48:29.317Z,97274.10
2018-12-22T02:50:55.765Z,97268.22
2018-12-22T02:53:22.273Z,97269.69
2018-12-22T02:55:48.760Z,97276.07
2018-12-22T02:58:15.405Z,97281.23
2018-12-22T03:00:41.953Z,97266.83
2018-12-22T03:03:08.464Z,97269.02
2018-12-22T03:05:35.006Z,97268.02
2018-12-22T03:08:01.463Z,97259.38
2018-12-22T03:10:27.886Z,97247.89
2018-12-22T03:12:54.394Z,97248.64
2018-12-22T03:15:21.173Z,97252.94
2018-12-22T03:17:47.701Z,97253.00
2018-12-22T03:20:14.437Z,97259.88
2018-12-22T03:22:43.004Z,97252.66
2018-12-22T03:25:09.455Z,97256.24
2018-12-22T03:27:35.984Z,97253.66
2018-12-22T03:30:02.473Z,97262.84
2018-12-22T03:32:29.155Z,97268.69
2018-12-22T03:34:55.827Z,97250.94
2018-12-22T03:37:22.612Z,97261.58
2018-12-22T03:39:49.119Z,97255.44
2018-12-22T03:42:15.621Z,97258.25
2018-12-22T03:44:42.742Z,97250.13
2018-12-22T03:47:09.273Z,97256.57
2018-12-22T03:49:35.750Z,97262.58
2018-12-22T03:52:02.209Z,97249.33
2018-12-22T03:54:28.743Z,97248.67
2018-12-22T03:56:55.410Z,97250.89
2018-12-22T03:59:24.985Z,97257.05
2018-12-22T04:01:50.426Z,97265.88
2018-12-22T04:04:16.904Z,97263.48
2018-12-22T04:06:43.507Z,97267.86
2018-12-22T04:09:09.951Z,97268.83
2018-12-22T04:11:36.475Z,97271.33
2018-12-22T04:14:02.950Z,97268.89
2018-12-22T04:16:29.445Z,97265.59
2018-12-22T04:18:55.892Z,97263.81
2018-12-22T04:21:22.946Z,97269.55
2018-12-22T04:23:49.397Z,97265.83
2018-12-22T04:26:16.622Z,97269.52
2018-12-22T04:28:43.680Z,97269.31
2018-12-22T04:31:10.366Z,97274.39
2018-12-22T04:33:37.400Z,97270.09
2018-12-22T04:36:04.431Z,97273.37
2018-12-22T04:38:31.507Z,97265.14
2018-12-22T04:40:57.975Z,97269.83
2018-12-22T04:43:24.967Z,97272.06
2018-12-22T04:45:51.411Z,97269.94
2018-12-22T04:48:17.923Z,97288.96
2018-12-22T04:50:44.361Z,97294.30
2018-12-22T04:53:10.807Z,97278.00
2018-12-22T04:55:38.046Z,97266.53
2018-12-22T04:58:04.864Z,97279.66
2018-12-22T05:00:31.866Z,97290.89
2018-12-22T05:02:58.547Z,97299.20
2018-12-22T05:05:26.777Z,97294.02
2018-12-22T05:07:54.939Z,97291.84
2018-12-22T05:10:22.026Z,97293.59
2018-12-22T05:12:49.181Z,97288.73
2018-12-22T05:15:16.412Z,97281.06
2018-12-22T05:17:44.930Z,97269.06
2018-12-22T05:20:12.914Z,97287.13
2018-12-22T05:22:39.398Z,97274.95
2018-12-22T05:25:05.864Z,97268.53
2018-12-22T05:27:33.675Z,97267.49
2018-12-22T05:30:01.783Z,97263.06
2018-12-22T05:32:28.252Z,97266.70
2018-12-22T05:34:55.623Z,97263.88
2018-12-22T05:37:23.369Z,97263.00
2018-12-22T05:39:50.829Z,97265.28
2018-12-22T05:42:18.089Z,97256.98
2018-12-22T05:44:45.348Z,97255.66
2018-12-22T05:47:12.000Z,97258.41
2018-12-22T05:49:38.558Z,97257.92
2018-12-22T05:52:05.874Z,97260.02
2018-12-22T05:54:33.107Z,97248.11
2018-12-22T05:57:00.412Z,97251.51
2018-12-22T05:59:26.902Z,97246.44
2018-12-22T06:01:54.143Z,97252.68
2018-12-22T06:04:20.577Z,97250.13
2018-12-22T06:06:47.137Z,97246.47
2018-12-22T06:09:14.810Z,97250.20
2018-12-22T06:11:41.813Z,97262.25
2018-12-22T06:14:08.405Z,97262.81
2018-12-22T06:16:36.119Z,97264.07
2018-12-22T06:19:02.688Z,97270.85
2018-12-22T06:21:29.404Z,97268.36
2018-12-22T06:23:55.866Z,97260.66
2018-12-22T06:26:24.038Z,97253.16
2018-12-22T06:28:51.337Z,97255.45
2018-12-22T06:31:18.097Z,97256.22
2018-12-22T06:33:46.199Z,97257.39
2018-12-22T06:36:12.835Z,97269.48
2018-12-22T06:38:40.439Z,97277.86
2018-12-22T06:41:07.768Z,97278.55
2018-12-22T06:43:35.831Z,97274.63
2018-12-22T06:46:02.804Z,97271.05
2018-12-22T06:51:02.300Z,97261.53
2018-12-22T06:53:29.730Z,97266.11
2018-12-22T06:55:56.803Z,97256.58
2018-12-22T06:58:23.287Z,97254.00
2018-12-22T07:00:51.310Z,97260.63
2018-12-22T07:03:18.447Z,97261.56
2018-12-22T07:05:45.689Z,97256.83
2018-12-22T07:08:12.160Z,97247.38
2018-12-22T07:10:39.418Z,97245.42
2018-12-22T07:13:06.039Z,97245.61
2018-12-22T07:15:32.654Z,97254.79
2018-12-22T07:17:59.838Z,97255.23
2018-12-22T07:20:27.210Z,97267.00
2018-12-22T07:22:53.683Z,97272.73
2018-12-22T07:25:20.141Z,97276.74
2018-12-22T07:27:46.589Z,97264.89
2018-12-22T07:30:13.265Z,97271.31
2018-12-22T07:32:39.706Z,97266.77
2018-12-22T07:35:06.382Z,97269.19
2018-12-22T07:37:33.726Z,97269.70
2018-12-22T07:40:00.304Z,97266.38
2018-12-22T07:42:28.639Z,97263.27
2018-12-22T07:44:55.185Z,97279.69
2018-12-22T07:47:23.415Z,97273.38
2018-12-22T07:49:50.347Z,97289.11
2018-12-22T07:52:17.088Z,97302.75
2018-12-22T07:54:44.167Z,97297.89
2018-12-22T07:57:10.752Z,97282.27
2018-12-22T07:59:38.517Z,97310.37
2018-12-22T08:02:05.034Z,97290.48
2018-12-22T08:04:31.808Z,97301.06
2018-12-22T08:06:58.298Z,97308.97
2018-12-22T08:09:24.985Z,97299.80
2018-12-22T08:11:51.424Z,97312.16
2018-12-22T08:14:17.884Z,97304.00
2018-12-22T08:16:45.209Z,97303.52
2018-12-22T08:19:12.209Z,97305.21
2018-12-22T08:21:39.330Z,97299.81
2018-12-22T08:24:06.983Z,97299.30
2018-12-22T08:26:34.837Z,97296.39
2018-12-22T08:29:02.211Z,97287.80
2018-12-22T08:31:30.211Z,97287.49
2018-12-22T08:33:57.411Z,97297.06
2018-12-22T08:36:24.776Z,97293.84
2018-12-22T08:38:51.878Z,97289.55
2018-12-22T08:41:18.350Z,97290.11
2018-12-22T08:43:44.858Z,97277.37
2018-12-22T08:46:11.668Z,97267.80
2018-12-22T08:48:38.889Z,97278.19
2018-12-22T08:51:05.335Z,97284.10
2018-12-22T08:53:33.584Z,97283.23
2018-12-22T08:56:00.710Z,97284.55
2018-12-22T08:58:27.489Z,97286.33
2018-12-22T09:00:56.072Z,97280.43
2018-12-22T09:03:22.562Z,97283.34
2018-12-22T09:05:51.127Z,97280.66
2018-12-22T09:08:17.597Z,97271.25
2018-12-22T09:10:45.042Z,97264.37
2018-12-22T09:13:20.663Z,97262.31
2018-12-22T09:15:41.091Z,97255.30
2018-12-22T09:18:07.941Z,97251.65
2018-12-22T09:20:35.306Z,97253.24
2018-12-22T09:23:02.048Z,97242.58
2018-12-22T09:25:29.456Z,97250.47
2018-12-22T09:27:56.726Z,97244.19
2018-12-22T09:30:23.765Z,97243.06
2018-12-22T09:32:51.166Z,97243.68
2018-12-22T09:35:18.682Z,97234.82
2018-12-22T09:37:45.279Z,97239.22
2018-12-22T09:40:12.537Z,97247.72
2018-12-22T09:42:39.324Z,97242.88
2018-12-22T09:45:05.753Z,97244.33
2018-12-22T09:47:33.231Z,97243.17
2018-12-22T09:50:00.346Z,97247.12
2018-12-22T09:52:27.702Z,97252.15
2018-12-22T09:54:56.217Z,97246.36
2018-12-22T09:57:22.925Z,97247.97
2018-12-22T09:59:50.557Z,97241.36
2018-12-22T10:02:17.027Z,97241.41
2018-12-22T10:04:43.982Z,97233.20
2018-12-22T10:07:10.507Z,97229.81
2018-12-22T10:09:37.507Z,97207.84
2018-12-22T10:12:04.635Z,97210.41
2018-12-22T10:14:31.401Z,97202.05
2018-12-22T10:16:58.706Z,97188.79
2018-12-22T10:19:25.378Z,97162.70
2018-12-22T10:21:52.516Z,97181.25
2018-12-22T10:24:19.733Z,97188.91
2018-12-22T10:26:46.366Z,97182.11
2018-12-22T10:29:13.707Z,97181.77
2018-12-22T10:31:40.457Z,97169.76
2018-12-22T10:34:07.046Z,97155.91
2018-12-22T10:36:34.279Z,97162.05
2018-12-22T10:39:00.755Z,97148.42
2018-12-22T10:41:27.255Z,97164.39
2018-12-22T10:43:53.799Z,97167.27
2018-12-22T10:46:21.960Z,97165.73
2018-12-22T10:48:48.898Z,97175.73
2018-12-22T10:51:24.285Z,97169.06
2018-12-22T10:53:45.937Z,97159.66
2018-12-22T10:56:14.248Z,97178.72
2018-12-22T10:58:42.082Z,97184.78
2018-12-22T11:01:08.530Z,97177.32
2018-12-22T11:03:35.627Z,97189.52
2018-12-22T11:06:02.268Z,97184.64
2018-12-22T11:08:30.492Z,97175.53
2018-12-22T11:10:58.050Z,97173.16
2018-12-22T11:13:25.799Z,97166.30
2018-12-22T11:15:52.555Z,97168.72
2018-12-22T11:18:21.379Z,97169.34
2018-12-22T11:20:49.156Z,97176.56
2018-12-22T11:23:20.403Z,97176.78
2018-12-22T11:25:45.128Z,97173.14
2018-12-22T11:28:11.629Z,97170.59
2018-12-22T11:30:38.110Z,97195.19
2018-12-22T11:33:05.295Z,97187.95
2018-12-22T11:35:32.123Z,97168.75
2018-12-22T11:37:58.594Z,97165.98
2018-12-22T11:40:25.767Z,97163.48
2018-12-22T11:42:52.220Z,97162.59
2018-12-22T11:45:19.754Z,97150.56
2018-12-22T11:47:46.837Z,97163.01
2018-12-22T11:50:14.735Z,97176.88
2018-12-22T11:52:41.182Z,97182.94
2018-12-22T11:55:08.414Z,97157.98
2018-12-22T11:57:35.932Z,97164.80
2018-12-22T12:00:02.563Z,97181.27
2018-12-22T12:02:29.293Z,97181.92
2018-12-22T12:04:55.848Z,97179.55
2018-12-22T12:07:22.506Z,97190.35
2018-12-22T12:09:49.584Z,97188.20
2018-12-22T12:12:16.807Z,97187.70
2018-12-22T12:14:43.261Z,97192.44
2018-12-22T12:17:10.243Z,97181.68
2018-12-22T12:19:37.132Z,97191.13
2018-12-22T12:22:03.633Z,97178.48
2018-12-22T12:24:31.683Z,97154.00
2018-12-22T12:26:58.471Z,97159.06
2018-12-22T12:29:25.736Z,97161.94
2018-12-22T12:31:52.554Z,97159.61
2018-12-22T12:34:19.519Z,97162.33
2018-12-22T12:36:46.526Z,97165.98
2018-12-22T12:39:13.003Z,97168.67
2018-12-22T12:41:41.102Z,97177.24
2018-12-22T12:44:07.909Z,97183.95
2018-12-22T12:46:35.574Z,97185.78
2018-12-22T12:49:02.022Z,97201.11
2018-12-22T12:51:28.492Z,97218.64
2018-12-22T12:53:54.958Z,97249.60
2018-12-22T12:56:23.762Z,97255.03
2018-12-22T12:58:51.046Z,97223.53
2018-12-22T13:01:18.091Z,97193.49
2018-12-22T13:03:46.083Z,97194.88
2018-12-22T13:06:13.180Z,97181.20
2018-12-22T13:08:40.306Z,97173.59
2018-12-22T13:11:07.317Z,97178.28
2018-12-22T13:13:34.636Z,97156.88
2018-12-22T13:16:01.921Z,97160.63
2018-12-22T13:18:28.969Z,97165.45
2018-12-22T13:20:55.436Z,97152.41
2018-12-22T13:23:24.378Z,97151.83
2018-12-22T13:25:51.889Z,97148.05
2018-12-22T13:28:19.874Z,97159.80
2018-12-22T13:30:47.243Z,97167.86
2018-12-22T13:33:14.290Z,97161.64
2018-12-22T13:35:42.266Z,97179.75
2018-12-22T13:38:09.008Z,97189.84
2018-12-22T13:40:36.495Z,97189.34
2018-12-22T13:43:03.697Z,97201.16
2018-12-22T13:45:31.173Z,97190.71
2018-12-22T13:47:58.148Z,97197.09
2018-12-22T13:50:26.134Z,97196.41
2018-12-22T13:52:53.799Z,97209.83
2018-12-22T13:55:20.248Z,97208.65
2018-12-22T13:57:47.575Z,97214.47
2018-12-22T14:00:14.290Z,97219.86
2018-12-22T14:02:42.290Z,97215.30
2018-12-22T14:05:08.790Z,97206.67
2018-12-22T14:07:35.301Z,97211.65
2018-12-22T14:10:01.751Z,97195.28
2018-12-22T14:12:28.393Z,97189.26
2018-12-22T14:14:55.583Z,97200.88
2018-12-22T14:17:22.936Z,97205.91
2018-12-22T14:19:51.402Z,97194.02
2018-12-22T14:22:17.970Z,97199.92
2018-12-22T14:24:44.944Z,97219.83
2018-12-22T14:27:12.329Z,97241.51
2018-12-22T14:29:39.025Z,97260.17
2018-12-22T14:32:06.815Z,97247.98
2018-12-22T14:34:34.334Z,97222.86
2018-12-22T14:37:00.957Z,97254.03
2018-12-22T14:39:27.401Z,97273.31
2018-12-22T14:41:55.178Z,97262.56
2018-12-22T14:44:23.282Z,97253.27
2018-12-22T14:46:52.230Z,97250.00
2018-12-22T14:49:19.205Z,97264.25
2018-12-22T14:51:46.623Z,97261.70
2018-12-22T14:54:13.073Z,97265.45
2018-12-22T14:56:39.556Z,97275.52
2018-12-22T14:59:07.573Z,97286.15
2018-12-22T15:01:34.327Z,97281.70
2018-12-22T15:04:01.623Z,97255.09
2018-12-22T15:06:28.771Z,97260.73
2018-12-22T15:08:55.580Z,97280.86
2018-12-22T15:11:22.587Z,97294.86
2018-12-22T15:13:49.075Z,97303.58
2018-12-22T15:16:15.786Z,97291.92
2018-12-22T15:18:42.813Z,97293.95
2018-12-22T15:21:09.650Z,97301.32
2018-12-22T15:23:36.782Z,97324.33
2018-12-22T15:26:03.849Z,97318.89
2018-12-22T15:28:31.588Z,97334.80
2018-12-22T15:30:58.057Z,97315.77
2018-12-22T15:33:26.124Z,97331.88
2018-12-22T15:35:57.665Z,97326.77
2018-12-22T15:38:24.463Z,97329.89
2018-12-22T15:40:52.839Z,97325.24
2018-12-22T15:43:20.881Z,97348.34
2018-12-22T15:45:47.364Z,97327.38
2018-12-22T15:48:13.821Z,97339.36
2018-12-22T15:50:41.122Z,97336.91
2018-12-22T15:53:07.646Z,97353.08
2018-12-22T15:55:34.154Z,97354.88
2018-12-22T15:58:00.667Z,97366.05
2018-12-22T16:00:28.036Z,97347.31
2018-12-22T16:02:54.543Z,97350.64
2018-12-22T16:05:21.631Z,97344.11
2018-12-22T16:07:48.793Z,97351.59
2018-12-22T16:10:16.368Z,97345.72
2018-12-22T16:12:42.936Z,97338.21
2018-12-22T16:15:10.186Z,97347.52
2018-12-22T16:17:38.190Z,97357.66
2018-12-22T16:20:04.691Z,97352.59
2018-12-22T16:22:32.706Z,97358.59
2018-12-22T16:25:01.503Z,97364.16
2018-12-22T16:27:28.199Z,97356.28
2018-12-22T16:29:55.264Z,97361.28
2018-12-22T16:32:21.823Z,97371.11
2018-12-22T16:34:49.932Z,97365.62
2018-12-22T16:37:16.652Z,97371.45
2018-12-22T16:39:43.135Z,97387.41
2018-12-22T16:42:10.167Z,97397.31
2018-12-22T16:44:36.794Z,97400.84
2018-12-22T16:47:03.538Z,97404.73
2018-12-22T16:49:30.731Z,97418.34
2018-12-22T16:51:58.127Z,97436.38
2018-12-22T16:54:24.687Z,97445.81
2018-12-22T16:56:51.268Z,97436.85
2018-12-22T16:59:18.747Z,97425.29
2018-12-22T17:01:46.342Z,97424.75
2018-12-22T17:04:12.822Z,97432.59
2018-12-22T17:06:40.818Z,97431.84
2018-12-22T17:09:08.346Z,97419.41
2018-12-22T17:11:35.133Z,97434.98
2018-12-22T17:14:01.603Z,97447.64
2018-12-22T17:16:28.076Z,97443.59
2018-12-22T17:18:54.617Z,97463.70
2018-12-22T17:21:22.223Z,97467.28
2018-12-22T17:23:48.990Z,97485.70
2018-12-22T17:26:16.470Z,97476.56
2018-12-22T17:28:43.499Z,97494.59
2018-12-22T17:31:10.088Z,97487.72
2018-12-22T17:33:37.054Z,97490.52
2018-12-22T17:36:04.077Z,97514.73
2018-12-22T17:38:31.308Z,97529.59
2018-12-22T17:40:58.529Z,97540.51
2018-12-22T17:45:56.716Z,97568.34
2018-12-22T17:48:23.874Z,97567.83
2018-12-22T17:50:50.558Z,97563.64
2018-12-22T17:53:17.767Z,97570.82
2018-12-22T17:55:44.628Z,97577.33
2018-12-22T17:58:11.139Z,97568.14
2018-12-22T18:00:37.834Z,97558.30
2018-12-22T18:03:05.941Z,97555.77
2018-12-22T18:05:33.830Z,97548.97
2018-12-22T18:08:02.379Z,97534.84
2018-12-22T18:10:29.092Z,97533.78
2018-12-22T18:12:57.256Z,97521.39
2018-12-22T18:15:24.488Z,97562.44
2018-12-22T18:17:51.575Z,97561.30
2018-12-22T18:20:19.515Z,97564.97
2018-12-22T18:22:46.300Z,97556.58
2018-12-22T18:25:13.026Z,97564.69
2018-12-22T18:27:40.377Z,97561.58
2018-12-22T18:30:07.868Z,97548.52
2018-12-22T18:32:34.536Z,97532.88
2018-12-22T18:35:02.116Z,97538.32
2018-12-22T18:37:28.633Z,97552.20
2018-12-22T18:39:55.312Z,97562.60
2018-12-22T18:42:22.028Z,97572.33
2018-12-22T18:44:48.805Z,97576.78
2018-12-22T18:47:15.377Z,97582.83
2018-12-22T18:49:43.284Z,97587.11
2018-12-22T18:52:09.721Z,97590.72
2018-12-22T18:54:36.460Z,97586.09
2018-12-22T18:57:03.625Z,97609.08
2018-12-22T18:59:33.181Z,97603.69
2018-12-22T19:01:59.914Z,97587.56
2018-12-22T19:04:27.450Z,97597.66
2018-12-22T19:06:53.948Z,97620.48
2018-12-22T19:09:21.294Z,97623.06
2018-12-22T19:11:48.084Z,97618.92
2018-12-22T19:14:15.448Z,97626.80
2018-12-22T19:16:42.138Z,97622.80
2018-12-22T19:19:12.078Z,97625.98
2018-12-22T19:21:38.656Z,97628.19
2018-12-22T19:24:05.166Z,97620.14
2018-12-22T19:26:33.112Z,97624.73
2018-12-22T19:28:59.676Z,97614.90
2018-12-22T19:31:26.151Z,97607.10
2018-12-22T19:33:53.569Z,97605.77
2018-12-22T19:36:20.781Z,97599.75
2018-12-22T19:38:49.112Z,97594.44
2018-12-22T19:41:15.659Z,97599.45
2018-12-22T19:43:42.789Z,97594.86
2018-12-22T19:46:10.053Z,97603.16
2018-12-22T19:48:36.667Z,97609.81
2018-12-22T19:51:03.930Z,97621.23
2018-12-22T19:53:33.379Z,97612.54
2018-12-22T19:56:01.189Z,97617.74
2018-12-22T19:58:28.218Z,97627.72
2018-12-22T20:00:55.458Z,97628.44
2018-12-22T20:03:22.680Z,97621.22
2018-12-22T20:05:49.814Z,97614.13
2018-12-22T20:08:16.579Z,97615.84
2018-12-22T20:10:45.065Z,97622.08
2018-12-22T20:13:12.746Z,97622.59
2018-12-22T20:15:40.020Z,97627.65
2018-12-22T20:18:06.699Z,97638.73
2018-12-22T20:20:34.099Z,97648.78
2018-12-22T20:23:01.137Z,97646.58
2018-12-22T20:25:27.718Z,97636.13
2018-12-22T20:27:54.881Z,97636.78
2018-12-22T20:30:22.930Z,97643.30
2018-12-22T20:32:49.715Z,97639.80
2018-12-22T20:35:16.220Z,97641.03
2018-12-22T20:37:43.093Z,97630.14
2018-12-22T20:40:10.223Z,97626.40
2018-12-22T20:42:37.432Z,97624.76
2018-12-22T20:45:04.088Z,97631.27
2018-12-22T20:47:30.972Z,97627.16
2018-12-22T20:49:57.820Z,97636.62
2018-12-22T20:52:25.135Z,97631.91
2018-12-22T20:54:52.353Z,97637.22
2018-12-22T20:57:19.851Z,97644.55
2018-12-22T20:59:46.645Z,97640.16
2018-12-22T21:02:13.278Z,97646.20
2018-12-22T21:04:40.411Z,97642.63
2018-12-22T21:07:08.540Z,97634.67
2018-12-22T21:09:35.649Z,97655.00
2018-12-22T21:12:03.631Z,97663.94
2018-12-22T21:14:30.585Z,97668.00
2018-12-22T21:16:57.868Z,97671.25
2018-12-22T21:19:24.458Z,97683.30
2018-12-22T21:21:51.615Z,97699.73
2018-12-22T21:24:18.765Z,97702.86
2018-12-22T21:26:45.772Z,97717.05
2018-12-22T21:29:12.265Z,97712.96
2018-12-22T21:31:41.771Z,97709.05
2018-12-22T21:34:08.258Z,97705.72
2018-12-22T21:36:34.717Z,97700.02
2018-12-22T21:39:02.023Z,97713.09
2018-12-22T21:41:30.137Z,97720.23
2018-12-22T21:43:56.908Z,97709.81
2018-12-22T21:46:23.519Z,97703.59
2018-12-22T21:48:50.020Z,97697.20
2018-12-22T21:51:17.015Z,97706.73
2018-12-22T21:53:43.530Z,97711.97
2018-12-22T21:56:10.523Z,97721.16
2018-12-22T21:58:38.241Z,97734.45
2018-12-22T22:01:04.671Z,97736.02
2018-12-22T22:03:31.305Z,97739.38
2018-12-22T22:05:58.161Z,97747.45
2018-12-22T22:08:25.289Z,97757.95
2018-12-22T22:10:53.033Z,97770.91
2018-12-22T22:13:22.967Z,97757.34
2018-12-22T22:15:50.110Z,97763.51
2018-12-22T22:18:16.844Z,97771.00
2018-12-22T22:20:43.419Z,97766.45
2018-12-22T22:23:18.832Z,97780.83
2018-12-22T22:25:42.003Z,97768.48
2018-12-22T22:28:08.540Z,97768.39
2018-12-22T22:30:35.037Z,97762.90
2018-12-22T22:33:02.435Z,97771.80
2018-12-22T22:35:29.652Z,97779.72
2018-12-22T22:37:56.263Z,97779.72
2018-12-22T22:40:24.250Z,97774.87
2018-12-22T22:42:51.182Z,97771.91
2018-12-22T22:45:17.686Z,97767.02
2018-12-22T22:47:44.349Z,97768.97
2018-12-22T22:50:10.820Z,97763.20
2018-12-22T22:52:37.585Z,97753.67
2018-12-22T22:55:04.139Z,97757.90
2018-12-22T22:57:31.363Z,97740.78
2018-12-22T22:59:58.622Z,97741.02
2018-12-22T23:02:25.497Z,97732.88
2018-12-22T23:04:54.538Z,97742.16
2018-12-22T23:07:22.085Z,97735.95
2018-12-22T23:09:49.993Z,97733.02
2018-12-22T23:12:16.791Z,97722.70
2018-12-22T23:14:44.115Z,97725.05
2018-12-22T23:17:10.623Z,97736.38
2018-12-22T23:19:38.299Z,97730.14
2018-12-22T23:22:04.791Z,97732.11
2018-12-22T23:24:31.909Z,97717.53
2018-12-22T23:26:59.155Z,97718.30
2018-12-22T23:29:25.908Z,97718.29
2018-12-22T23:31:53.273Z,97726.46
2018-12-22T23:34:20.307Z,97721.78
2018-12-22T23:36:48.404Z,97720.14
2018-12-22T23:39:14.910Z,97715.82
2018-12-22T23:41:42.318Z,97717.83
2018-12-22T23:44:10.115Z,97707.48
2018-12-22T23:46:40.922Z,97695.05
2018-12-22T23:49:08.875Z,97693.62
2018-12-22T23:51:36.438Z,97693.30
2018-12-22T23:54:03.047Z,97692.30
2018-12-22T23:56:31.690Z,97681.23
2018-12-22T23:58:59.111Z,97683.39
